sensor_id;sensor_type;location;lat;lon;timestamp;pressure;altitude;pressure_sealevel;temperature;humidity
53689;BME280;39583;54.682;30.662;2023-04-22T06:25:18;99294.91;;;13.94;54.97
53689;BME280;39583;54.682;30.662;2023-04-22T06:27:44;99291.56;;;14.21;55.13
53689;BME280;39583;54.682;30.662;2023-04-22T06:30:12;99298.50;;;14.50;55.05
53689;BME280;39583;54.682;30.662;2023-04-22T06:32:39;99288.38;;;14.84;54.44
53689;BME280;39583;54.682;30.662;2023-04-22T06:35:05;99295.31;;;15.19;53.77
53689;BME280;39583;54.682;30.662;2023-04-22T06:37:31;99293.50;;;15.51;52.83
53689;BME280;39583;54.682;30.662;2023-04-22T14:33:14;99205.47;;;17.26;38.53
53689;BME280;39583;54.682;30.662;2023-04-22T14:35:40;99206.88;;;17.49;37.88
53689;BME280;39583;54.682;30.662;2023-04-22T14:38:08;99216.38;;;17.67;37.67
53689;BME280;39583;54.682;30.662;2023-04-22T14:40:35;99212.59;;;17.78;37.44
53689;BME280;39583;54.682;30.662;2023-04-22T14:43:02;99215.06;;;18.00;37.72
53689;BME280;39583;54.682;30.662;2023-04-22T14:45:29;99206.31;;;18.08;37.40
53689;BME280;39583;54.682;30.662;2023-04-22T14:47:56;99218.59;;;18.11;37.38
53689;BME280;39583;54.682;30.662;2023-04-22T14:50:22;99205.78;;;18.06;37.31
53689;BME280;39583;54.682;30.662;2023-04-22T14:52:49;99218.00;;;18.09;36.93
53689;BME280;39583;54.682;30.662;2023-04-22T14:55:16;99218.84;;;18.04;37.08
53689;BME280;39583;54.682;30.662;2023-04-22T14:57:42;99218.56;;;18.06;37.08
53689;BME280;39583;54.682;30.662;2023-04-22T15:00:09;99215.59;;;18.12;36.96
53689;BME280;39583;54.682;30.662;2023-04-22T15:02:36;99205.22;;;18.09;36.86
53689;BME280;39583;54.682;30.662;2023-04-22T15:05:02;99213.91;;;18.21;36.98
53689;BME280;39583;54.682;30.662;2023-04-22T15:07:28;99219.94;;;18.23;36.74
53689;BME280;39583;54.682;30.662;2023-04-22T15:09:55;99217.19;;;18.23;36.96
53689;BME280;39583;54.682;30.662;2023-04-22T15:12:27;99204.38;;;18.24;36.79
53689;BME280;39583;54.682;30.662;2023-04-22T15:14:53;99221.81;;;18.28;36.88
53689;BME280;39583;54.682;30.662;2023-04-22T15:17:19;99208.22;;;18.23;36.64
53689;BME280;39583;54.682;30.662;2023-04-22T15:19:45;99212.00;;;18.27;36.51
53689;BME280;39583;54.682;30.662;2023-04-22T15:22:11;99218.25;;;18.33;36.60
53689;BME280;39583;54.682;30.662;2023-04-22T15:24:37;99217.97;;;18.39;36.35
53689;BME280;39583;54.682;30.662;2023-04-22T15:27:03;99208.69;;;18.40;35.97
53689;BME280;39583;54.682;30.662;2023-04-22T15:29:29;99213.59;;;18.33;36.29
53689;BME280;39583;54.682;30.662;2023-04-22T15:31:55;99221.25;;;18.31;36.35
53689;BME280;39583;54.682;30.662;2023-04-22T15:34:22;99220.47;;;18.25;36.59
53689;BME280;39583;54.682;30.662;2023-04-22T15:36:48;99213.94;;;18.16;36.63
53689;BME280;39583;54.682;30.662;2023-04-22T15:39:14;99213.94;;;18.06;36.72
53689;BME280;39583;54.682;30.662;2023-04-22T15:41:40;99213.97;;;18.01;37.07
53689;BME280;39583;54.682;30.662;2023-04-22T15:44:09;99220.75;;;17.93;36.73
53689;BME280;39583;54.682;30.662;2023-04-22T15:46:35;99216.16;;;17.79;37.12
53689;BME280;39583;54.682;30.662;2023-04-22T15:49:02;99225.41;;;17.73;37.16
53689;BME280;39583;54.682;30.662;2023-04-22T15:51:28;99222.66;;;17.67;37.35
53689;BME280;39583;54.682;30.662;2023-04-22T15:53:56;99211.22;;;17.50;37.33
53689;BME280;39583;54.682;30.662;2023-04-22T15:56:22;99227.53;;;17.55;37.80
53689;BME280;39583;54.682;30.662;2023-04-22T15:58:49;99226.44;;;17.51;37.60
53689;BME280;39583;54.682;30.662;2023-04-22T16:01:17;99223.75;;;17.46;37.90
53689;BME280;39583;54.682;30.662;2023-04-22T16:03:49;99223.72;;;17.41;37.81
53689;BME280;39583;54.682;30.662;2023-04-22T16:06:16;99220.47;;;17.34;37.98
53689;BME280;39583;54.682;30.662;2023-04-22T16:08:42;99225.88;;;17.29;38.09
53689;BME280;39583;54.682;30.662;2023-04-22T16:11:10;99235.13;;;17.23;38.09
53689;BME280;39583;54.682;30.662;2023-04-22T16:13:36;99231.28;;;17.19;38.17
53689;BME280;39583;54.682;30.662;2023-04-22T16:16:03;99240.00;;;17.16;38.29
53689;BME280;39583;54.682;30.662;2023-04-22T16:18:30;99221.75;;;17.06;38.17
53689;BME280;39583;54.682;30.662;2023-04-22T16:20:58;99225.00;;;16.98;38.54
53689;BME280;39583;54.682;30.662;2023-04-22T16:23:24;99242.13;;;16.98;38.91
53689;BME280;39583;54.682;30.662;2023-04-22T16:25:50;99238.81;;;16.91;38.79
53689;BME280;39583;54.682;30.662;2023-04-22T16:28:16;99236.38;;;16.85;38.71
53689;BME280;39583;54.682;30.662;2023-04-22T16:30:42;99232.50;;;16.75;38.85
53689;BME280;39583;54.682;30.662;2023-04-22T16:33:08;99229.25;;;16.68;38.79
53689;BME280;39583;54.682;30.662;2023-04-22T16:35:34;99231.88;;;16.58;39.28
53689;BME280;39583;54.682;30.662;2023-04-22T16:38:00;99236.22;;;16.54;39.27
53689;BME280;39583;54.682;30.662;2023-04-22T16:40:26;99240.22;;;16.46;39.43
53689;BME280;39583;54.682;30.662;2023-04-22T16:42:52;99236.38;;;16.37;39.79
53689;BME280;39583;54.682;30.662;2023-04-22T16:45:19;99246.41;;;16.32;39.69
53689;BME280;39583;54.682;30.662;2023-04-22T16:47:45;99242.25;;;16.24;39.98
53689;BME280;39583;54.682;30.662;2023-04-22T16:50:11;99244.69;;;16.15;40.22
53689;BME280;39583;54.682;30.662;2023-04-22T16:52:38;99248.13;;;16.06;40.30
53689;BME280;39583;54.682;30.662;2023-04-22T16:55:05;99248.56;;;15.92;40.22
53689;BME280;39583;54.682;30.662;2023-04-22T16:57:32;99248.78;;;15.86;40.54
53689;BME280;39583;54.682;30.662;2023-04-22T16:59:58;99249.53;;;15.76;40.79
53689;BME280;39583;54.682;30.662;2023-04-22T17:02:24;99254.34;;;15.69;41.05
53689;BME280;39583;54.682;30.662;2023-04-22T17:04:49;99254.75;;;15.56;41.30
53689;BME280;39583;54.682;30.662;2023-04-22T17:07:15;99255.41;;;15.41;41.63
53689;BME280;39583;54.682;30.662;2023-04-22T17:09:41;99255.31;;;15.31;41.84
53689;BME280;39583;54.682;30.662;2023-04-22T17:12:07;99263.34;;;15.21;42.10
53689;BME280;39583;54.682;30.662;2023-04-22T17:14:33;99258.88;;;15.10;42.19
53689;BME280;39583;54.682;30.662;2023-04-22T17:16:59;99265.50;;;14.97;42.34
53689;BME280;39583;54.682;30.662;2023-04-22T17:19:25;99272.50;;;14.93;42.70
53689;BME280;39583;54.682;30.662;2023-04-22T17:21:53;99266.69;;;14.84;42.89
53689;BME280;39583;54.682;30.662;2023-04-22T17:24:19;99272.50;;;14.71;43.11
53689;BME280;39583;54.682;30.662;2023-04-22T17:26:45;99279.50;;;14.67;43.29
53689;BME280;39583;54.682;30.662;2023-04-22T17:29:11;99277.47;;;14.57;43.52
53689;BME280;39583;54.682;30.662;2023-04-22T17:31:37;99280.88;;;14.48;43.77
53689;BME280;39583;54.682;30.662;2023-04-22T17:34:04;99278.78;;;14.38;44.18
53689;BME280;39583;54.682;30.662;2023-04-22T17:36:30;99282.16;;;14.28;44.26
53689;BME280;39583;54.682;30.662;2023-04-22T17:38:56;99288.84;;;14.21;44.47
53689;BME280;39583;54.682;30.662;2023-04-22T17:41:23;99285.16;;;14.10;44.76
53689;BME280;39583;54.682;30.662;2023-04-22T17:43:48;99292.59;;;14.03;44.97
53689;BME280;39583;54.682;30.662;2023-04-22T17:46:15;99293.34;;;13.98;45.31
53689;BME280;39583;54.682;30.662;2023-04-22T17:48:42;99292.22;;;13.94;45.72
53689;BME280;39583;54.682;30.662;2023-04-22T17:51:12;99293.44;;;13.86;46.08
53689;BME280;39583;54.682;30.662;2023-04-22T17:53:38;99298.97;;;13.80;46.59
53689;BME280;39583;54.682;30.662;2023-04-22T17:56:09;99299.91;;;13.69;46.85
53689;BME280;39583;54.682;30.662;2023-04-22T17:58:35;99281.91;;;13.46;46.60
53689;BME280;39583;54.682;30.662;2023-04-22T18:01:04;99294.34;;;13.47;47.09
53689;BME280;39583;54.682;30.662;2023-04-22T18:03:31;99303.09;;;13.37;47.09
53689;BME280;39583;54.682;30.662;2023-04-22T18:05:57;99307.34;;;13.33;47.09
53689;BME280;39583;54.682;30.662;2023-04-22T18:08:24;99309.94;;;13.28;47.19
53689;BME280;39583;54.682;30.662;2023-04-22T18:10:50;99310.44;;;13.25;47.25
53689;BME280;39583;54.682;30.662;2023-04-22T18:13:16;99307.63;;;13.20;47.32
53689;BME280;39583;54.682;30.662;2023-04-22T18:15:42;99308.09;;;13.17;47.46
53689;BME280;39583;54.682;30.662;2023-04-22T18:18:08;99313.63;;;13.10;47.59
53689;BME280;39583;54.682;30.662;2023-04-22T18:20:34;99314.34;;;13.06;47.94
53689;BME280;39583;54.682;30.662;2023-04-22T18:23:00;99315.28;;;12.99;48.41
53689;BME280;39583;54.682;30.662;2023-04-22T18:25:26;99316.25;;;12.93;48.80
53689;BME280;39583;54.682;30.662;2023-04-22T18:27:52;99312.97;;;12.91;49.18
53689;BME280;39583;54.682;30.662;2023-04-22T18:30:22;99316.97;;;12.89;49.88
53689;BME280;39583;54.682;30.662;2023-04-22T18:32:48;99318.25;;;12.86;50.28
53689;BME280;39583;54.682;30.662;2023-04-22T18:35:15;99327.09;;;12.82;50.51
53689;BME280;39583;54.682;30.662;2023-04-22T18:37:43;99322.63;;;12.76;50.58
53689;BME280;39583;54.682;30.662;2023-04-22T18:40:10;99324.97;;;12.72;50.67
53689;BME280;39583;54.682;30.662;2023-04-22T18:42:36;99329.22;;;12.68;50.95
